Time;durP1;ratioP1;P1;durP2;ratioP2;P2;SDS_P1;SDS_P2;PMS_P1;PMS_P2;Temp;Humidity;BMP_temperature;BMP_pressure;BME280_temperature;BME280_humidity;BME280_pressure;Samples;Min_cycle;Max_cycle;Signal;HPM_P1;HPM_P2
2022/06/14 00:02:30;;;;;;;12.15;3.03;;;13.10;99.90;;;;;;5005985;28;20417;-76
2022/06/14 00:04:56;;;;;;;10.80;2.80;;;13.00;99.90;;;;;;5006388;28;20432;-76
2022/06/14 00:07:21;;;;;;;10.63;3.40;;;13.00;99.90;;;;;;5006442;28;20937;-76
2022/06/14 00:09:47;;;;;;;13.97;3.47;;;13.00;99.90;;;;;;5005142;28;20461;-77
2022/06/14 00:12:13;;;;;;;11.38;3.08;;;13.00;99.90;;;;;;5006140;28;20840;-76
2022/06/14 00:14:39;;;;;;;9.45;3.00;;;12.90;99.90;;;;;;5004437;28;20562;-76
2022/06/14 00:17:05;;;;;;;11.93;3.67;;;12.90;99.90;;;;;;5004897;28;20444;-76
2022/06/14 00:19:31;;;;;;;11.27;3.17;;;12.90;99.90;;;;;;5006052;28;20518;-76
2022/06/14 00:22:01;;;;;;;8.38;3.00;;;12.80;99.90;;;;;;5006218;28;20553;-76
2022/06/14 00:24:28;;;;;;;11.32;3.08;;;12.80;99.90;;;;;;4988377;28;20490;-76
2022/06/14 00:26:53;;;;;;;12.40;3.40;;;12.80;99.90;;;;;;5005846;28;20902;-77
2022/06/14 00:29:19;;;;;;;10.10;2.90;;;12.80;99.90;;;;;;5004844;28;20413;-76
2022/06/14 00:31:45;;;;;;;10.20;3.20;;;12.70;99.90;;;;;;5004693;28;20491;-76
2022/06/14 00:34:11;;;;;;;9.20;3.13;;;12.70;99.90;;;;;;5006039;28;20409;-76
2022/06/14 00:36:36;;;;;;;11.57;3.60;;;12.70;99.90;;;;;;5004883;28;20409;-76
2022/06/14 00:39:08;;;;;;;13.07;3.67;;;12.70;99.90;;;;;;5004570;28;20445;-76
2022/06/14 00:41:39;;;;;;;11.65;3.38;;;12.60;99.90;;;;;;5005607;28;20413;-76
2022/06/14 00:44:15;;;;;;;11.90;3.75;;;12.60;99.90;;;;;;5066656;28;20960;-76
2022/06/14 00:47:11;;;;;;;14.38;3.60;;;12.60;99.90;;;;;;5007733;28;20942;-77
2022/06/14 00:49:50;;;;;;;12.73;3.55;;;12.50;99.90;;;;;;5005522;28;20886;-76
2022/06/14 00:52:34;;;;;;;10.93;3.67;;;12.50;99.90;;;;;;5004869;28;20504;-76
2022/06/14 00:55:07;;;;;;;10.15;3.50;;;12.40;99.90;;;;;;5005807;28;20421;-76
2022/06/14 00:57:40;;;;;;;13.30;3.30;;;12.40;99.90;;;;;;5004049;28;20421;-76
2022/06/14 01:00:18;;;;;;;10.45;2.80;;;12.40;99.90;;;;;;5004206;28;20437;-76
2022/06/14 01:02:50;;;;;;;9.00;3.10;;;12.40;99.90;;;;;;5004016;28;20468;-76
2022/06/14 01:08:22;;;;;;;11.48;3.13;;;12.40;99.90;;;;;;5005228;28;20421;-76
2022/06/14 01:10:48;;;;;;;10.97;3.50;;;12.40;99.90;;;;;;5003597;28;20504;-77
2022/06/14 01:13:17;;;;;;;11.17;3.13;;;12.40;99.90;;;;;;4990469;28;20513;-77
2022/06/14 01:15:44;;;;;;;10.50;3.00;;;12.40;99.90;;;;;;5005349;28;20779;-77
2022/06/14 01:18:12;;;;;;;11.77;3.55;;;12.40;99.90;;;;;;5044879;28;20405;-77
2022/06/14 01:20:39;;;;;;;12.55;3.17;;;12.30;99.90;;;;;;5066911;28;20407;-77
2022/06/14 01:23:07;;;;;;;11.68;3.17;;;12.30;99.90;;;;;;5039268;28;20817;-77
2022/06/14 01:25:45;;;;;;;11.63;3.10;;;12.20;99.90;;;;;;5004142;28;20420;-77
2022/06/14 01:28:13;;;;;;;10.63;3.30;;;12.20;99.90;;;;;;5006299;28;20421;-76
2022/06/14 01:30:45;;;;;;;9.95;3.15;;;12.20;99.90;;;;;;5044305;28;20427;-77
2022/06/14 01:33:27;;;;;;;10.48;3.45;;;12.20;99.90;;;;;;5069331;28;20834;-76
2022/06/14 01:36:10;;;;;;;10.95;2.92;;;12.10;99.90;;;;;;5106982;28;20910;-77
2022/06/14 01:38:36;;;;;;;10.98;3.60;;;12.10;99.90;;;;;;5075608;28;20881;-76
2022/06/14 01:41:20;;;;;;;9.03;3.07;;;12.10;99.90;;;;;;5106453;28;20416;-77
2022/06/14 01:44:05;;;;;;;14.53;3.70;;;12.10;99.90;;;;;;5106954;28;20804;-77
2022/06/14 01:47:11;;;;;;;14.48;3.50;;;12.20;99.90;;;;;;5076286;28;20914;-76
2022/06/14 01:52:44;;;;;;;11.10;3.10;;;12.30;99.90;;;;;;5105342;28;20483;-77
2022/06/14 01:55:18;;;;;;;11.40;3.40;;;12.30;99.90;;;;;;5016411;28;20416;-76
2022/06/14 01:58:06;;;;;;;11.70;3.63;;;12.40;99.90;;;;;;5006481;28;21013;-76
2022/06/14 02:00:44;;;;;;;11.48;3.10;;;12.40;99.90;;;;;;5008268;28;20982;-77
2022/06/14 02:06:17;;;;;;;11.85;2.95;;;12.50;99.90;;;;;;5010412;28;20447;-76
2022/06/14 02:08:55;;;;;;;12.50;3.22;;;12.50;99.90;;;;;;4986894;28;20428;-76
2022/06/14 02:11:29;;;;;;;11.10;3.10;;;12.50;99.90;;;;;;5005808;28;20405;-76
2022/06/14 02:14:02;;;;;;;12.70;3.27;;;12.60;99.90;;;;;;5024022;28;20403;-76
2022/06/14 02:16:36;;;;;;;12.70;3.67;;;12.60;99.90;;;;;;5022292;28;20404;-76
2022/06/14 02:19:17;;;;;;;12.13;3.20;;;12.60;99.90;;;;;;5003167;28;20447;-76
2022/06/14 02:21:52;;;;;;;11.00;3.35;;;12.60;99.90;;;;;;5075753;28;20431;-77
2022/06/14 02:24:24;;;;;;;11.70;3.50;;;12.60;99.90;;;;;;5006741;28;20775;-76
2022/06/14 02:27:15;;;;;;;10.70;3.50;;;12.60;99.90;;;;;;5005987;28;20425;-76
2022/06/14 02:30:13;;;;;;;10.60;3.08;;;12.60;99.90;;;;;;5019525;28;20412;-77
2022/06/14 02:32:44;;;;;;;11.43;3.25;;;12.50;99.90;;;;;;5010391;28;20423;-76
2022/06/14 02:35:19;;;;;;;12.88;3.45;;;12.60;99.90;;;;;;5006092;28;20420;-77
2022/06/14 02:37:50;;;;;;;12.13;3.58;;;12.60;99.90;;;;;;5006366;28;20413;-76
2022/06/14 02:40:26;;;;;;;11.00;3.47;;;12.50;99.90;;;;;;5007484;28;20433;-76
2022/06/14 02:42:58;;;;;;;12.40;3.63;;;12.50;99.90;;;;;;5006193;28;20500;-76
2022/06/14 02:45:30;;;;;;;11.85;3.30;;;12.50;99.90;;;;;;5016283;28;20453;-77
2022/06/14 02:48:07;;;;;;;12.95;3.58;;;12.50;99.90;;;;;;5057749;28;20501;-77
2022/06/14 02:50:50;;;;;;;8.80;3.40;;;12.50;99.90;;;;;;5025944;28;20413;-77
2022/06/14 02:53:37;;;;;;;10.00;3.83;;;12.40;99.90;;;;;;5102132;28;20440;-77
2022/06/14 02:56:23;;;;;;;9.98;3.55;;;12.40;99.90;;;;;;5037383;28;20423;-77
2022/06/14 02:59:02;;;;;;;12.40;3.60;;;12.40;99.90;;;;;;5110062;28;20490;-77
2022/06/14 03:01:42;;;;;;;11.43;3.55;;;12.40;99.90;;;;;;5109285;28;20461;-76
2022/06/14 03:04:15;;;;;;;13.35;3.97;;;12.40;99.90;;;;;;5037359;28;20421;-77
2022/06/14 03:06:57;;;;;;;10.10;3.60;;;12.40;99.90;;;;;;5109053;28;20452;-77
2022/06/14 03:09:25;;;;;;;10.27;3.67;;;12.40;99.90;;;;;;5109957;28;20408;-78
2022/06/14 03:12:05;;;;;;;9.13;3.15;;;12.40;99.90;;;;;;5109487;28;20404;-76
2022/06/14 03:14:37;;;;;;;10.43;3.95;;;12.30;99.90;;;;;;5110051;28;20412;-77
2022/06/14 03:17:15;;;;;;;9.05;3.33;;;12.30;99.90;;;;;;5109095;28;20408;-77
2022/06/14 03:19:49;;;;;;;9.88;3.75;;;12.30;99.90;;;;;;5090087;28;20848;-77
2022/06/14 03:22:41;;;;;;;11.05;3.50;;;12.30;99.90;;;;;;5063053;28;20416;-77
2022/06/14 03:25:21;;;;;;;11.27;3.83;;;12.20;99.90;;;;;;5010132;28;20443;-76
2022/06/14 03:27:56;;;;;;;14.87;4.70;;;12.20;99.90;;;;;;5108694;28;20434;-77
2022/06/14 03:30:29;;;;;;;11.35;3.78;;;12.20;99.90;;;;;;5108878;28;20436;-76
2022/06/14 03:33:21;;;;;;;11.32;3.70;;;12.10;99.90;;;;;;5107880;28;20404;-77
2022/06/14 03:35:48;;;;;;;12.23;3.83;;;12.20;99.90;;;;;;5108687;28;20416;-77
2022/06/14 03:38:27;;;;;;;11.40;3.97;;;12.10;99.90;;;;;;5108721;28;20443;-77
2022/06/14 03:40:53;;;;;;;11.05;4.05;;;12.20;99.90;;;;;;5109932;27;20411;-77
2022/06/14 03:43:20;;;;;;;11.85;4.15;;;12.20;99.90;;;;;;5109578;28;20935;-77
2022/06/14 03:46:05;;;;;;;10.80;3.63;;;12.10;99.90;;;;;;5109403;28;20400;-76
2022/06/14 03:48:34;;;;;;;11.73;3.78;;;12.10;99.90;;;;;;5109875;28;20937;-76
2022/06/14 03:51:23;;;;;;;11.33;3.97;;;12.10;99.90;;;;;;5109589;28;20987;-77
2022/06/14 03:54:01;;;;;;;9.93;3.60;;;12.20;99.90;;;;;;5089816;28;20417;-77
2022/06/14 03:56:45;;;;;;;11.55;4.07;;;12.10;99.90;;;;;;5064850;28;20838;-77
2022/06/14 03:59:48;;;;;;;11.40;3.53;;;12.10;99.90;;;;;;5108168;28;20806;-77
2022/06/14 04:02:53;;;;;;;12.18;3.75;;;12.10;99.90;;;;;;5096134;28;20428;-77
2022/06/14 04:05:23;;;;;;;12.07;3.60;;;12.10;99.90;;;;;;5070505;28;20458;-76
2022/06/14 04:07:57;;;;;;;11.07;3.63;;;12.10;99.90;;;;;;5077655;28;20834;-77
2022/06/14 04:10:44;;;;;;;11.07;3.45;;;12.00;99.90;;;;;;5107922;28;20416;-76
2022/06/14 04:13:26;;;;;;;11.65;4.00;;;12.10;99.90;;;;;;5090033;28;20405;-76
2022/06/14 04:16:34;;;;;;;11.70;3.80;;;12.10;99.90;;;;;;5091161;28;20420;-77
2022/06/14 04:19:38;;;;;;;10.90;3.53;;;12.00;99.90;;;;;;4997495;28;20504;-76
2022/06/14 04:22:40;;;;;;;11.33;3.90;;;12.00;99.90;;;;;;5091498;28;20474;-76
2022/06/14 04:25:22;;;;;;;9.30;3.50;;;12.10;99.90;;;;;;5109193;28;20400;-77
2022/06/14 04:28:18;;;;;;;12.43;3.65;;;12.10;99.90;;;;;;5108883;28;20416;-77
2022/06/14 04:30:54;;;;;;;12.57;3.75;;;12.10;99.90;;;;;;5027661;28;20416;-77
2022/06/14 04:33:32;;;;;;;10.18;3.15;;;12.10;99.90;;;;;;5107924;28;20416;-77
2022/06/14 04:36:01;;;;;;;10.15;3.50;;;12.10;99.90;;;;;;5090391;28;20412;-77
2022/06/14 04:38:55;;;;;;;12.25;3.63;;;12.10;99.90;;;;;;5107525;28;20428;-77
2022/06/14 04:41:27;;;;;;;9.70;3.67;;;12.00;99.90;;;;;;5044664;28;20424;-77
2022/06/14 04:44:10;;;;;;;10.70;3.58;;;12.10;99.90;;;;;;5090265;28;21185;-77
2022/06/14 04:46:44;;;;;;;11.13;3.43;;;12.10;99.90;;;;;;5106848;28;20938;-77
2022/06/14 04:49:32;;;;;;;12.30;3.58;;;12.10;99.90;;;;;;5108810;28;20423;-76
2022/06/14 04:52:18;;;;;;;10.55;3.65;;;12.10;99.90;;;;;;5107367;28;20782;-77
2022/06/14 04:55:00;;;;;;;12.70;3.80;;;12.10;99.90;;;;;;5035133;28;20400;-77
2022/06/14 04:57:55;;;;;;;8.27;3.38;;;12.20;99.90;;;;;;5108246;28;20400;-77
2022/06/14 05:00:27;;;;;;;11.93;3.65;;;12.30;99.90;;;;;;5096796;28;20436;-77
2022/06/14 05:02:59;;;;;;;14.57;4.28;;;12.40;99.90;;;;;;5107157;28;20411;-77
2022/06/14 05:05:33;;;;;;;11.05;3.17;;;12.50;99.90;;;;;;5108776;28;20401;-76
2022/06/14 05:08:07;;;;;;;10.80;3.35;;;12.60;99.90;;;;;;5108052;28;20418;-77
2022/06/14 05:10:51;;;;;;;11.30;3.22;;;12.60;99.90;;;;;;5107257;28;20523;-77
2022/06/14 05:13:44;;;;;;;11.18;3.33;;;12.70;99.90;;;;;;5106977;28;20408;-76
2022/06/14 05:16:12;;;;;;;12.23;3.22;;;12.80;99.90;;;;;;5107879;28;20763;-77
2022/06/14 05:19:15;;;;;;;9.07;2.80;;;13.00;99.90;;;;;;5067530;28;20429;-77
2022/06/14 05:22:10;;;;;;;11.13;2.80;;;13.10;99.90;;;;;;5102427;28;20829;-77
2022/06/14 05:24:37;;;;;;;10.05;3.35;;;13.20;99.90;;;;;;5107924;28;20416;-77
2022/06/14 05:27:38;;;;;;;9.25;2.65;;;13.20;99.90;;;;;;5106954;28;20504;-76
2022/06/14 05:30:18;;;;;;;10.63;2.60;;;13.30;99.90;;;;;;5073924;28;20766;-77
2022/06/14 05:33:03;;;;;;;9.83;2.97;;;13.40;99.90;;;;;;5108044;28;20408;-76
2022/06/14 05:36:04;;;;;;;9.13;2.58;;;13.40;99.90;;;;;;5023678;28;20405;-77
2022/06/14 05:38:42;;;;;;;11.32;3.35;;;13.60;99.90;;;;;;5103400;28;20806;-76
2022/06/14 05:41:11;;;;;;;8.60;2.55;;;13.70;99.90;;;;;;5107069;28;20491;-76
2022/06/14 05:43:46;;;;;;;10.40;3.00;;;13.80;99.90;;;;;;5106706;28;20412;-77
2022/06/14 05:46:51;;;;;;;7.68;2.47;;;13.90;99.90;;;;;;5107373;28;20416;-76
2022/06/14 05:49:21;;;;;;;8.65;2.70;;;14.00;99.90;;;;;;4996230;28;20498;-77
2022/06/14 05:51:55;;;;;;;8.20;2.40;;;14.10;99.90;;;;;;5103932;28;20419;-75
2022/06/14 05:54:34;;;;;;;10.23;2.72;;;14.30;99.90;;;;;;5059151;28;20437;-75
2022/06/14 05:57:40;;;;;;;9.48;2.60;;;14.30;99.90;;;;;;5106872;28;20419;-75
2022/06/14 06:00:17;;;;;;;11.13;3.03;;;14.40;99.90;;;;;;5100442;28;20443;-77
2022/06/14 06:02:50;;;;;;;8.80;2.75;;;14.50;99.90;;;;;;4999049;28;20492;-77
2022/06/14 06:05:26;;;;;;;10.80;2.58;;;14.50;99.90;;;;;;5007009;28;20458;-76
2022/06/14 06:08:05;;;;;;;9.45;2.70;;;14.60;99.90;;;;;;5017883;28;20425;-77
2022/06/14 06:10:34;;;;;;;10.43;2.60;;;14.70;99.90;;;;;;5019853;28;20783;-76
2022/06/14 06:13:07;;;;;;;10.43;2.97;;;14.70;99.90;;;;;;5074058;28;20489;-77
2022/06/14 06:15:41;;;;;;;8.45;2.45;;;14.70;99.90;;;;;;5014447;28;21013;-77
2022/06/14 06:18:14;;;;;;;9.15;2.38;;;14.80;99.90;;;;;;5065954;28;20413;-77
2022/06/14 06:21:06;;;;;;;11.02;2.65;;;14.80;99.90;;;;;;4997426;28;20421;-78
2022/06/14 06:23:42;;;;;;;8.80;2.43;;;14.80;99.90;;;;;;5008623;28;20954;-77
2022/06/14 06:26:11;;;;;;;9.38;2.65;;;14.80;99.90;;;;;;5008878;28;20494;-78
2022/06/14 06:28:40;;;;;;;8.57;2.25;;;14.80;99.90;;;;;;5008316;28;20408;-77
2022/06/14 06:31:16;;;;;;;8.40;2.47;;;14.80;99.90;;;;;;5003240;28;20412;-77
2022/06/14 06:33:46;;;;;;;9.60;1.75;;;14.90;99.90;;;;;;5017665;28;20472;-77
2022/06/14 06:36:21;;;;;;;5.47;1.50;;;14.90;99.90;;;;;;5021190;28;20801;-77
2022/06/14 06:39:05;;;;;;;9.13;1.77;;;15.00;99.90;;;;;;5021327;28;20439;-77
2022/06/14 06:41:50;;;;;;;7.55;1.40;;;15.10;99.90;;;;;;5023745;28;20485;-77
2022/06/14 06:44:22;;;;;;;5.82;1.70;;;15.20;99.90;;;;;;5008452;28;20417;-78
2022/06/14 06:46:54;;;;;;;6.65;1.20;;;15.20;99.90;;;;;;5025472;28;20420;-77
2022/06/14 06:49:30;;;;;;;7.63;1.70;;;15.20;99.90;;;;;;5012628;28;20496;-77
2022/06/14 06:52:00;;;;;;;6.20;1.40;;;15.20;99.90;;;;;;5004900;28;20416;-77
2022/06/14 06:54:38;;;;;;;6.88;1.55;;;15.20;99.90;;;;;;5016682;28;20451;-77
2022/06/14 06:57:06;;;;;;;6.38;1.50;;;15.30;99.90;;;;;;5006963;28;20410;-77
2022/06/14 06:59:37;;;;;;;6.90;1.60;;;15.30;99.90;;;;;;5006590;28;20514;-78
2022/06/14 07:02:23;;;;;;;9.48;2.00;;;15.30;99.90;;;;;;5049179;28;20412;-77
2022/06/14 07:05:05;;;;;;;6.45;1.65;;;15.30;99.90;;;;;;4992942;28;20557;-77
2022/06/14 07:07:53;;;;;;;8.67;2.03;;;15.30;99.90;;;;;;5043178;28;20412;-77
2022/06/14 07:10:38;;;;;;;6.30;1.70;;;15.30;99.90;;;;;;5008743;28;20759;-77
2022/06/14 07:13:19;;;;;;;8.53;1.97;;;15.30;99.90;;;;;;4988781;28;21191;-77
2022/06/14 07:15:48;;;;;;;6.32;1.70;;;15.30;99.90;;;;;;5025579;28;20420;-77
2022/06/14 07:18:22;;;;;;;5.60;1.60;;;15.40;99.90;;;;;;5110097;28;20404;-78
2022/06/14 07:21:23;;;;;;;6.03;1.23;;;15.40;99.90;;;;;;5109236;28;20388;-77
2022/06/14 07:24:11;;;;;;;6.38;1.40;;;15.50;99.90;;;;;;5109971;28;20440;-77
2022/06/14 07:26:40;;;;;;;6.22;1.00;;;15.60;99.90;;;;;;5110010;28;20910;-78
2022/06/14 07:29:25;;;;;;;4.65;0.98;;;15.80;99.90;;;;;;5061657;28;20561;-77
2022/06/14 07:31:51;;;;;;;4.68;1.25;;;15.90;99.90;;;;;;5108832;28;20416;-77
2022/06/14 07:34:17;;;;;;;13.13;3.37;;;16.00;99.90;;;;;;5108471;28;20407;-77
2022/06/14 07:36:57;;;;;;;9.18;1.30;;;16.20;99.90;;;;;;5110085;28;20420;-77
2022/06/14 07:39:43;;;;;;;5.25;1.13;;;16.20;99.90;;;;;;5109924;28;20507;-77
2022/06/14 07:42:18;;;;;;;5.07;1.17;;;16.30;99.90;;;;;;5109733;28;20407;-77
2022/06/14 07:45:03;;;;;;;5.63;1.20;;;16.40;99.90;;;;;;5078934;28;20964;-78
2022/06/14 07:47:47;;;;;;;6.70;1.30;;;16.40;99.90;;;;;;5106458;27;20439;-77
2022/06/14 07:50:38;;;;;;;5.65;1.17;;;16.40;99.90;;;;;;5032965;28;20405;-77
2022/06/14 07:53:16;;;;;;;4.97;1.30;;;16.50;99.90;;;;;;5109469;28;20692;-77
2022/06/14 07:55:50;;;;;;;6.47;1.50;;;16.50;99.90;;;;;;5044586;28;20437;-77
2022/06/14 07:58:37;;;;;;;6.47;1.45;;;16.60;99.90;;;;;;5035912;28;20416;-77
2022/06/14 08:01:12;;;;;;;8.55;1.55;;;16.70;99.90;;;;;;5048345;28;20456;-78
2022/06/14 08:03:41;;;;;;;4.78;1.02;;;16.90;99.90;;;;;;5024458;28;20471;-77
2022/06/14 08:06:15;;;;;;;7.00;1.65;;;16.90;99.90;;;;;;5108017;28;20519;-77
2022/06/14 08:08:43;;;;;;;4.85;1.40;;;16.90;99.90;;;;;;5105369;28;20409;-78
2022/06/14 08:11:45;;;;;;;8.07;1.45;;;16.90;99.90;;;;;;5080687;28;20440;-77
2022/06/14 08:14:22;;;;;;;6.70;1.48;;;17.00;99.90;;;;;;5014928;28;20447;-79
2022/06/14 08:16:50;;;;;;;6.13;1.50;;;17.10;99.90;;;;;;5071382;28;20739;-77
2022/06/14 08:19:28;;;;;;;5.40;1.05;;;17.00;99.90;;;;;;5089525;28;20436;-76
2022/06/14 08:22:04;;;;;;;5.85;1.25;;;16.90;99.90;;;;;;5071124;28;20497;-76
2022/06/14 08:24:39;;;;;;;6.60;1.20;;;16.80;99.90;;;;;;5023492;28;20396;-76
2022/06/14 08:27:18;;;;;;;4.60;1.10;;;16.90;99.90;;;;;;5101542;28;20408;-76
2022/06/14 08:29:50;;;;;;;6.32;1.40;;;17.00;99.90;;;;;;5028555;28;20408;-76
2022/06/14 08:32:19;;;;;;;5.30;1.00;;;17.10;99.90;;;;;;5108593;28;20499;-76
2022/06/14 08:35:12;;;;;;;7.00;1.15;;;17.20;99.90;;;;;;5105564;28;20855;-76
2022/06/14 08:38:14;;;;;;;4.60;0.70;;;17.30;99.90;;;;;;5071907;28;20458;-77
2022/06/14 08:41:15;;;;;;;5.53;1.27;;;17.30;99.90;;;;;;5027684;28;20472;-77
2022/06/14 08:43:53;;;;;;;4.05;0.82;;;17.30;99.90;;;;;;4997677;28;20768;-78
2022/06/14 08:46:34;;;;;;;5.63;1.30;;;17.30;99.90;;;;;;5081342;28;20465;-77
2022/06/14 08:49:03;;;;;;;6.22;1.50;;;17.50;99.90;;;;;;5096722;28;20774;-77
2022/06/14 08:51:45;;;;;;;4.70;0.80;;;17.50;99.90;;;;;;5089026;28;20458;-77
2022/06/14 08:54:28;;;;;;;3.15;0.90;;;17.50;99.90;;;;;;5048510;28;20515;-77
2022/06/14 08:57:03;;;;;;;4.37;1.00;;;17.50;99.90;;;;;;5003209;28;20938;-78
2022/06/14 08:59:59;;;;;;;6.07;1.10;;;17.40;99.90;;;;;;5078472;28;20432;-78
2022/06/14 09:02:31;;;;;;;5.18;1.10;;;17.40;99.90;;;;;;5030289;28;20429;-77
2022/06/14 09:05:09;;;;;;;7.57;1.20;;;17.40;99.90;;;;;;5018939;28;20420;-77
2022/06/14 09:08:12;;;;;;;4.97;0.85;;;17.50;99.90;;;;;;4997395;28;20489;-77
2022/06/14 09:10:59;;;;;;;6.53;1.10;;;17.50;99.90;;;;;;4995252;28;20817;-78
2022/06/14 09:13:55;;;;;;;5.07;1.00;;;17.60;99.90;;;;;;5016493;28;20954;-77
2022/06/14 09:16:33;;;;;;;2.60;0.88;;;17.60;99.90;;;;;;5080532;28;20469;-78
2022/06/14 09:19:03;;;;;;;4.68;0.75;;;17.70;99.90;;;;;;5089430;28;20478;-73
2022/06/14 09:21:43;;;;;;;6.68;1.20;;;17.80;99.90;;;;;;5077458;28;20420;-77
2022/06/14 09:24:36;;;;;;;3.92;0.80;;;18.10;99.90;;;;;;5087770;28;20456;-77
2022/06/14 09:27:07;;;;;;;3.38;0.82;;;18.50;99.90;;;;;;5072066;28;20442;-77
2022/06/14 09:29:50;;;;;;;5.20;0.98;;;18.70;99.90;;;;;;5078773;28;20416;-78
2022/06/14 09:35:53;;;;;;;4.20;0.80;;;19.00;99.90;;;;;;5053298;28;20416;-77
2022/06/14 09:38:56;;;;;;;3.72;0.68;;;18.90;99.90;;;;;;5047882;28;20432;-78
2022/06/14 09:41:50;;;;;;;4.35;0.77;;;18.80;99.60;;;;;;5072213;28;20413;-78
2022/06/14 09:44:47;;;;;;;5.57;0.70;;;18.70;99.70;;;;;;5068553;28;20458;-78
2022/06/14 09:47:24;;;;;;;3.58;0.70;;;18.70;99.20;;;;;;5072426;28;20404;-77
2022/06/14 09:50:02;;;;;;;3.70;0.70;;;18.90;99.30;;;;;;5006643;28;20421;-78
2022/06/14 09:52:55;;;;;;;3.47;0.60;;;19.20;97.80;;;;;;5036470;28;20413;-77
2022/06/14 09:55:44;;;;;;;2.88;0.50;;;19.60;97.50;;;;;;5025997;28;20837;-78
2022/06/14 09:58:37;;;;;;;2.40;0.43;;;20.00;96.60;;;;;;5023336;28;20427;-78
2022/06/14 10:01:22;;;;;;;3.50;0.50;;;20.20;96.50;;;;;;5005600;28;20417;-78
2022/06/14 10:04:07;;;;;;;3.60;0.80;;;20.10;96.50;;;;;;5009570;28;20442;-78
2022/06/14 10:06:54;;;;;;;3.35;0.70;;;19.70;96.10;;;;;;5019551;28;20423;-78
2022/06/14 10:09:37;;;;;;;4.85;1.10;;;19.50;96.60;;;;;;5010378;28;20417;-78
2022/06/14 10:12:11;;;;;;;3.88;0.90;;;19.10;97.50;;;;;;5035410;28;20408;-77
2022/06/14 10:14:41;;;;;;;3.65;0.85;;;18.90;98.30;;;;;;5052222;28;20452;-78
2022/06/14 10:17:27;;;;;;;3.80;0.93;;;18.80;98.60;;;;;;5079371;28;20432;-78
2022/06/14 10:20:10;;;;;;;3.67;0.95;;;18.70;98.40;;;;;;5040647;28;20451;-78
2022/06/14 10:23:16;;;;;;;3.85;0.90;;;18.70;98.50;;;;;;5003582;28;20443;-78
2022/06/14 10:28:45;;;;;;;3.33;0.80;;;18.70;98.00;;;;;;5002725;28;20417;-78
2022/06/14 10:31:28;;;;;;;4.10;0.80;;;18.80;97.50;;;;;;5018409;28;20417;-78
2022/06/14 10:34:16;;;;;;;5.90;1.00;;;19.00;98.10;;;;;;5006748;28;20409;-78
2022/06/14 10:36:55;;;;;;;5.43;1.15;;;19.40;98.00;;;;;;5006164;28;20421;-78
2022/06/14 10:39:26;;;;;;;4.18;0.70;;;20.00;97.20;;;;;;5014277;28;20441;-78
2022/06/14 10:42:11;;;;;;;3.47;0.70;;;20.60;97.30;;;;;;5003600;28;20421;-78
2022/06/14 10:45:12;;;;;;;3.63;0.90;;;21.10;95.30;;;;;;5001121;28;20460;-75
2022/06/14 10:47:50;;;;;;;3.03;0.73;;;21.40;94.60;;;;;;5002714;28;20417;-75
2022/06/14 10:50:41;;;;;;;5.05;0.80;;;21.50;93.00;;;;;;5004587;28;20417;-76
2022/06/14 10:53:25;;;;;;;2.72;0.60;;;21.50;92.80;;;;;;5003032;28;20421;-75
2022/06/14 10:56:18;;;;;;;3.25;0.70;;;21.20;92.80;;;;;;5067775;28;20444;-75
2022/06/14 10:59:05;;;;;;;3.42;0.80;;;21.00;93.10;;;;;;5033297;28;20420;-76
2022/06/14 11:01:36;;;;;;;4.00;0.90;;;20.70;93.70;;;;;;5064984;28;20493;-76
2022/06/14 11:04:14;;;;;;;4.57;1.10;;;20.50;94.10;;;;;;5008906;28;20436;-75
2022/06/14 11:06:46;;;;;;;4.10;0.90;;;20.30;94.30;;;;;;5042034;28;20511;-75
2022/06/14 11:09:30;;;;;;;4.40;1.02;;;20.10;94.30;;;;;;5060754;28;20917;-77
2022/06/14 11:12:05;;;;;;;3.13;0.83;;;20.10;94.60;;;;;;5031068;28;20865;-78
2022/06/14 11:14:50;;;;;;;4.63;1.05;;;20.30;95.50;;;;;;5058571;28;20941;-77
2022/06/14 11:17:40;;;;;;;4.45;0.80;;;20.70;95.10;;;;;;5032112;28;20415;-78
2022/06/14 11:20:36;;;;;;;3.85;0.90;;;21.10;94.40;;;;;;5047226;28;20433;-79
2022/06/14 11:23:12;;;;;;;2.87;0.70;;;21.30;93.10;;;;;;5036373;28;20446;-78
2022/06/14 11:25:55;;;;;;;2.85;0.60;;;21.40;92.50;;;;;;5110044;28;20439;-78
2022/06/14 11:28:40;;;;;;;3.73;0.80;;;21.30;91.30;;;;;;5070059;28;20422;-78
2022/06/14 11:31:33;;;;;;;3.22;0.77;;;21.00;91.60;;;;;;5102848;28;20404;-78
2022/06/14 11:34:06;;;;;;;4.07;0.90;;;20.80;92.40;;;;;;5092942;28;20433;-77
2022/06/14 11:36:44;;;;;;;5.93;0.80;;;20.50;93.40;;;;;;5102960;28;20421;-78
2022/06/14 11:39:28;;;;;;;3.60;1.00;;;20.20;94.30;;;;;;5109113;28;20420;-78
2022/06/14 11:41:54;;;;;;;4.50;1.08;;;19.90;95.50;;;;;;5110076;28;20404;-78
2022/06/14 11:44:42;;;;;;;4.55;1.10;;;19.80;96.00;;;;;;5024200;28;20512;-78
2022/06/14 11:47:28;;;;;;;4.28;1.10;;;19.60;96.80;;;;;;5048797;28;20413;-78
2022/06/14 11:50:30;;;;;;;6.45;1.23;;;19.40;97.30;;;;;;5080353;28;20731;-77
2022/06/14 11:53:20;;;;;;;4.57;1.23;;;19.30;97.40;;;;;;5020222;28;20420;-77
2022/06/14 11:55:51;;;;;;;4.95;1.40;;;19.00;97.60;;;;;;5002493;28;20778;-78
2022/06/14 11:58:39;;;;;;;5.25;1.25;;;18.90;98.30;;;;;;5007860;28;20752;-78
2022/06/14 12:01:23;;;;;;;4.47;1.27;;;18.70;98.70;;;;;;5019415;28;20429;-78
2022/06/14 12:04:30;;;;;;;4.25;1.40;;;18.60;99.20;;;;;;5006486;28;20423;-78
2022/06/14 12:07:20;;;;;;;3.67;1.05;;;18.50;99.70;;;;;;5003816;28;21465;-78
2022/06/14 12:10:29;;;;;;;5.30;1.23;;;18.40;99.70;;;;;;5014377;28;20480;-78
2022/06/14 12:13:23;;;;;;;4.63;1.30;;;18.40;99.90;;;;;;5022469;28;20569;-77
2022/06/14 12:16:15;;;;;;;4.37;1.20;;;18.40;99.90;;;;;;5008812;28;20440;-78
2022/06/14 12:18:49;;;;;;;4.53;1.20;;;18.50;99.90;;;;;;5003930;28;20879;-78
2022/06/14 12:21:28;;;;;;;6.60;1.10;;;18.50;99.90;;;;;;5001603;28;20444;-78
2022/06/14 12:23:59;;;;;;;4.60;1.33;;;18.50;99.90;;;;;;5008665;28;20415;-78
2022/06/14 12:26:52;;;;;;;4.45;1.20;;;18.60;99.90;;;;;;5008908;28;20478;-78
2022/06/14 12:29:30;;;;;;;5.25;1.38;;;18.60;99.90;;;;;;4983467;28;20470;-78
2022/06/14 12:32:04;;;;;;;6.25;1.27;;;18.70;99.90;;;;;;5003031;28;21545;-78
2022/06/14 12:34:47;;;;;;;3.92;1.15;;;18.80;99.90;;;;;;5005226;28;20425;-77
2022/06/14 12:37:24;;;;;;;5.95;1.52;;;18.80;99.90;;;;;;5022463;28;20417;-78
2022/06/14 12:39:57;;;;;;;4.82;0.98;;;19.00;99.90;;;;;;5002094;28;20443;-78
2022/06/14 12:42:56;;;;;;;4.28;1.10;;;19.10;99.90;;;;;;5003037;28;20952;-78
2022/06/14 12:45:43;;;;;;;4.28;1.05;;;19.20;99.90;;;;;;5010242;28;20416;-78
2022/06/14 12:48:11;;;;;;;4.22;1.33;;;19.40;99.90;;;;;;4989916;28;20424;-78
2022/06/14 12:50:43;;;;;;;3.70;1.20;;;19.60;99.90;;;;;;5027909;28;20435;-78
2022/06/14 12:53:33;;;;;;;5.47;1.52;;;19.80;99.90;;;;;;5068097;28;20416;-78
2022/06/14 12:56:10;;;;;;;5.60;1.25;;;20.10;99.20;;;;;;5030805;28;20876;-78
2022/06/14 12:58:44;;;;;;;3.42;1.10;;;20.40;98.20;;;;;;5020170;28;20413;-78
2022/06/14 13:01:22;;;;;;;4.95;1.27;;;20.80;97.60;;;;;;5023389;28;20452;-78
2022/06/14 13:04:11;;;;;;;4.00;0.95;;;21.20;95.70;;;;;;5073129;28;20432;-78
2022/06/14 13:06:53;;;;;;;3.70;1.10;;;21.40;95.30;;;;;;5077993;28;20436;-78
2022/06/14 13:09:30;;;;;;;5.75;1.30;;;21.80;94.00;;;;;;4996340;28;20414;-77
2022/06/14 13:12:11;;;;;;;4.25;0.93;;;22.00;93.40;;;;;;5021530;28;20445;-77
2022/06/14 13:15:05;;;;;;;3.90;0.90;;;22.40;92.80;;;;;;5011748;28;20783;-77
2022/06/14 13:17:41;;;;;;;3.13;1.02;;;22.90;92.90;;;;;;5027698;28;20511;-79
2022/06/14 13:20:23;;;;;;;4.77;1.00;;;23.30;90.20;;;;;;5108132;28;20585;-78
2022/06/14 13:23:03;;;;;;;3.80;0.90;;;23.50;88.60;;;;;;5102680;28;20439;-78
2022/06/14 13:26:06;;;;;;;4.03;0.88;;;23.50;86.60;;;;;;5108155;28;20463;-79
2022/06/14 13:29:03;;;;;;;3.07;0.63;;;23.40;86.50;;;;;;5079815;28;20953;-79
2022/06/14 13:32:00;;;;;;;4.80;0.98;;;23.50;87.90;;;;;;4992514;28;20429;-78
2022/06/14 13:34:49;;;;;;;2.88;0.68;;;23.40;86.10;;;;;;5096102;28;20405;-78
2022/06/14 13:37:30;;;;;;;4.47;0.90;;;23.50;88.00;;;;;;5108057;28;20401;-78
2022/06/14 13:40:04;;;;;;;4.63;1.00;;;23.70;88.70;;;;;;5033025;28;20432;-78
2022/06/14 13:42:44;;;;;;;3.60;1.00;;;24.10;85.10;;;;;;5107747;28;20405;-78
2022/06/14 13:45:18;;;;;;;4.18;1.10;;;24.00;85.70;;;;;;5108164;28;20396;-79
2022/06/14 13:48:12;;;;;;;3.17;0.93;;;23.70;85.30;;;;;;5095499;28;20420;-78
2022/06/14 13:50:45;;;;;;;2.90;0.80;;;23.40;85.80;;;;;;5009104;28;20444;-78
2022/06/14 13:53:22;;;;;;;3.77;1.00;;;23.10;86.10;;;;;;5071603;28;20800;-78
2022/06/14 13:56:06;;;;;;;5.43;0.98;;;22.80;87.40;;;;;;5105595;28;20520;-79
2022/06/14 13:58:53;;;;;;;3.03;0.90;;;22.50;88.70;;;;;;5022591;28;20812;-79
2022/06/14 14:01:31;;;;;;;3.78;1.00;;;22.20;89.20;;;;;;5099649;28;20782;-78
2022/06/14 14:04:15;;;;;;;4.85;0.88;;;21.90;90.20;;;;;;5107623;28;20458;-79
2022/06/14 14:06:51;;;;;;;5.38;1.25;;;21.50;90.40;;;;;;5086951;28;20436;-78